KANB/ANB METAR and TAF weather

Enter ICAO airport designator
Station Type Date Time Source
KANB METAR 2020/07/15 04:53 UTC NOAA

KANB 150453Z AUTO 08003KT 10SM CLR 23/21 A3004 RMK AO2 SLP160 T02330211


Station Type Date Time Source
KANB Decoded METAR 2020/07/15 04:53 UTC NOAA

ANNISTON METRO AIRPORT, AL, United States (KANB) 33-35N 085-51W 183M
Jul 15, 2020 - 12:53 AM EDT / 2020.07.15 0453 UTC
Wind: from the E (080 degrees) at 3 MPH (3 KT):0
Visibility: 10 mile(s):0
Sky conditions: clear
Temperature: 73.9 F (23.3 C)
Dew Point: 70.0 F (21.1 C)
Relative Humidity: 87%
Pressure (altimeter): 30.04 in. Hg (1017 hPa)
ob: KANB 150453Z AUTO 08003KT 10SM CLR 23/21 A3004 RMK AO2 SLP160 T02330211
cycle: 5

Station Type Date Time Source
KANB TAF 2020/07/14 18:22 UTC NOAA

TAF KANB 141720Z 1418/1518 29004KT P6SM FEW050 FEW100
FM150400 VRB03KT P6SM FEW040 FEW080
FM151400 12005KT P6SM FEW050 FEW070

Example: see airport list